createdAt,value
2023-02-18T00:00:58.982Z,44.2
2023-02-18T00:06:17.471Z,44.2
2023-02-18T00:11:36.044Z,44
2023-02-18T00:16:54.239Z,44.9
2023-02-18T00:22:12.730Z,44.3
2023-02-18T00:27:30.975Z,44.4
2023-02-18T00:32:49.719Z,44.6
2023-02-18T00:38:07.948Z,44.5
2023-02-18T00:43:26.193Z,44
2023-02-18T00:48:45.097Z,44.1
2023-02-18T00:54:03.327Z,44.1
2023-02-18T00:59:21.853Z,44
2023-02-18T01:04:40.152Z,44.1
2023-02-18T01:09:58.641Z,44.6
2023-02-18T01:15:16.916Z,44.5
2023-02-18T01:20:35.099Z,44.2
2023-02-18T01:25:53.609Z,44.5
2023-02-18T01:31:12.984Z,43.9
2023-02-18T01:36:31.509Z,44.4
2023-02-18T01:41:50.274Z,44.3
2023-02-18T01:47:08.821Z,44.8
2023-02-18T01:52:27.023Z,43.9
2023-02-18T01:57:45.504Z,44.7
2023-02-18T02:02:48.309Z,44.9
2023-02-18T02:08:06.544Z,44.4
2023-02-18T02:13:25.310Z,44.8
2023-02-18T02:18:43.556Z,44.6
2023-02-18T02:24:01.738Z,44.3
2023-02-18T02:29:20.246Z,44.8
2023-02-18T02:34:38.751Z,45.4
2023-02-18T02:39:57.220Z,44.9
2023-02-18T02:45:15.716Z,45.3
2023-02-18T02:50:33.950Z,45.1
2023-02-18T02:55:52.150Z,44.7
2023-02-18T03:01:10.531Z,45.5
2023-02-18T03:06:28.744Z,45.6
2023-02-18T03:11:47.283Z,45.9
2023-02-18T03:17:05.218Z,46
2023-02-18T03:22:23.225Z,45.1
2023-02-18T03:27:41.732Z,45.2
2023-02-18T03:32:59.974Z,45.1
2023-02-18T03:38:18.495Z,44.9
2023-02-18T03:43:36.961Z,45.2
2023-02-18T03:48:55.456Z,44.9
2023-02-18T03:54:14.043Z,45.4
2023-02-18T03:59:32.506Z,45.8
2023-02-18T04:04:50.750Z,45
2023-02-18T04:10:09.260Z,45.1
2023-02-18T04:15:27.781Z,45.6
2023-02-18T04:20:45.681Z,45.6
2023-02-18T04:26:04.275Z,45.1
2023-02-18T04:31:23.245Z,45.7
2023-02-18T04:36:41.312Z,45.5
2023-02-18T04:42:00.369Z,45.9
2023-02-18T04:47:18.357Z,46.2
2023-02-18T04:52:37.103Z,45.8
2023-02-18T04:57:55.936Z,45.8
2023-02-18T05:03:14.688Z,45.2
2023-02-18T05:08:33.186Z,44.9
2023-02-18T05:13:51.447Z,45.1
2023-02-18T05:19:10.184Z,45.6
2023-02-18T05:24:28.681Z,46.3
2023-02-18T05:29:47.024Z,46.3
2023-02-18T05:35:05.570Z,45.7
2023-02-18T05:40:23.793Z,45.5
2023-02-18T05:45:42.307Z,46.1
2023-02-18T05:51:01.212Z,46.3
2023-02-18T05:56:19.409Z,45.7
2023-02-18T06:01:37.764Z,46.3
2023-02-18T06:06:55.653Z,45.6
2023-02-18T06:12:14.151Z,45.2
2023-02-18T06:17:32.105Z,45.1
2023-02-18T06:22:50.865Z,45.1
2023-02-18T06:28:09.056Z,44.7
2023-02-18T06:33:27.712Z,44.7
2023-02-18T06:38:45.658Z,45.2
2023-02-18T06:44:03.861Z,45.4
2023-02-18T06:49:22.705Z,44.7
2023-02-18T06:54:41.955Z,44.6
2023-02-18T07:00:00.436Z,44.6
2023-02-18T07:05:19.076Z,44.7
2023-02-18T07:10:37.676Z,44.5
2023-02-18T07:15:56.646Z,44.7
2023-02-18T07:21:15.008Z,44.6
2023-02-18T07:26:33.476Z,44.6
2023-02-18T07:31:52.495Z,44.7
2023-02-18T07:37:11.061Z,44.6
2023-02-18T07:42:29.802Z,45.5
2023-02-18T07:47:48.333Z,44.9
2023-02-18T07:53:07.162Z,45.1
2023-02-18T07:58:25.651Z,45.9
2023-02-18T08:03:43.846Z,45.1
2023-02-18T08:09:02.403Z,45.2
2023-02-18T08:14:20.926Z,44.6
2023-02-18T08:19:39.459Z,45.4
2023-02-18T08:24:58.004Z,44.9
2023-02-18T08:30:16.386Z,45.2
2023-02-18T08:35:35.165Z,45.6
2023-02-18T08:40:53.935Z,44.8
2023-02-18T08:46:35.567Z,45.4
2023-02-18T08:51:54.536Z,45.8
2023-02-18T08:57:13.035Z,45.8
2023-02-18T09:02:31.761Z,45.4
2023-02-18T09:07:50.902Z,45.4
2023-02-18T09:13:09.705Z,45.2
2023-02-18T09:18:28.180Z,45.5
2023-02-18T09:23:46.661Z,44.7
2023-02-18T09:29:05.675Z,45.8
2023-02-18T09:34:24.341Z,45
2023-02-18T09:39:42.560Z,44.4
2023-02-18T09:45:00.924Z,44.2
2023-02-18T09:50:19.697Z,43.6
2023-02-18T09:55:38.176Z,44.3
2023-02-18T10:00:57.010Z,44.5
2023-02-18T10:06:15.238Z,43.7
2023-02-18T10:11:33.175Z,44.4
2023-02-18T10:16:51.755Z,43.7
2023-02-18T10:22:09.940Z,43.9
2023-02-18T10:27:28.455Z,44.6
2023-02-18T10:32:46.988Z,44.1
2023-02-18T10:37:49.858Z,43.8
2023-02-18T10:43:08.629Z,43.8
2023-02-18T10:48:26.866Z,43.9
2023-02-18T10:53:45.671Z,44.5
2023-02-18T10:59:04.133Z,44.3
2023-02-18T11:04:06.818Z,43.4
2023-02-18T11:09:24.722Z,43.7
2023-02-18T11:14:43.239Z,43.7
2023-02-18T11:20:02.064Z,43.3
2023-02-18T11:25:20.372Z,43.5
2023-02-18T11:30:38.996Z,43.9
2023-02-18T11:35:57.000Z,42.6
2023-02-18T11:41:15.467Z,42.6
2023-02-18T11:46:33.996Z,40.8
2023-02-18T11:51:52.227Z,38.7
2023-02-18T11:57:10.854Z,39.4
2023-02-18T12:02:29.063Z,39.2
2023-02-18T12:07:31.854Z,38
2023-02-18T12:12:50.179Z,39.5
2023-02-18T12:18:08.395Z,38.4
2023-02-18T12:23:26.941Z,38.1
2023-02-18T12:28:45.403Z,37.6
2023-02-18T12:34:03.605Z,36.4
2023-02-18T12:39:21.944Z,36.5
2023-02-18T12:44:40.414Z,36.9
2023-02-18T12:49:59.143Z,37.4
2023-02-18T12:55:17.353Z,37.7
2023-02-18T13:00:35.821Z,37.9
2023-02-18T13:05:54.297Z,37.4
2023-02-18T13:11:12.917Z,39.3
2023-02-18T13:16:31.938Z,38
2023-02-18T13:21:50.166Z,38.9
2023-02-18T13:27:08.765Z,38.7
2023-02-18T13:32:27.616Z,38.2
2023-02-18T13:37:46.104Z,38.2
2023-02-18T13:43:04.384Z,39.4
2023-02-18T13:48:23.168Z,39.3
2023-02-18T13:53:42.079Z,39.6
2023-02-18T13:59:00.642Z,36.4
2023-02-18T14:04:18.845Z,36.9
2023-02-18T14:09:37.369Z,37.1
2023-02-18T14:14:55.836Z,38
2023-02-18T14:20:14.321Z,38.8
2023-02-18T14:25:32.856Z,38.6
2023-02-18T14:30:52.093Z,39.6
2023-02-18T14:36:10.102Z,38.8
2023-02-18T14:41:28.587Z,39.7
2023-02-18T14:46:47.128Z,39.7
2023-02-18T14:52:05.302Z,39.9
2023-02-18T14:57:24.065Z,36.4
2023-02-18T15:02:42.548Z,38
2023-02-18T15:08:01.639Z,37.8
2023-02-18T15:13:20.030Z,38
2023-02-18T15:18:38.691Z,38.1
2023-02-18T15:23:56.858Z,38.4
2023-02-18T15:29:15.886Z,38.3
2023-02-18T15:34:33.834Z,38.3
2023-02-18T15:39:52.471Z,38.9
2023-02-18T15:45:10.646Z,39.1
2023-02-18T15:50:29.578Z,38.4
2023-02-18T15:55:48.021Z,38.8
2023-02-18T16:01:06.786Z,39.6
2023-02-18T16:06:25.132Z,39.5
2023-02-18T16:11:43.903Z,39
2023-02-18T16:17:02.126Z,39.7
2023-02-18T16:22:20.768Z,39.2
2023-02-18T16:27:39.148Z,39.3
2023-02-18T16:32:57.931Z,39.8
2023-02-18T16:38:16.639Z,39.8
2023-02-18T16:43:35.165Z,40
2023-02-18T16:48:53.660Z,40.1
2023-02-18T16:54:11.874Z,39.6
2023-02-18T16:59:30.670Z,39.6
2023-02-18T17:04:49.189Z,39.8
2023-02-18T17:10:07.274Z,39.7
2023-02-18T17:15:25.239Z,40.4
2023-02-18T17:20:44.604Z,39.8
2023-02-18T17:26:04.184Z,40.3
2023-02-18T17:31:22.991Z,39.1
2023-02-18T17:36:41.252Z,39.8
2023-02-18T17:41:59.475Z,39.6
2023-02-18T17:47:18.233Z,38.5
2023-02-18T17:52:37.006Z,39.8
2023-02-18T17:57:55.759Z,39.4
2023-02-18T18:03:14.263Z,39.4
2023-02-18T18:08:32.763Z,39.4
2023-02-18T18:13:51.245Z,40
2023-02-18T18:19:10.005Z,40.3
2023-02-18T18:24:28.373Z,40.4
2023-02-18T18:29:46.639Z,40.7
2023-02-18T18:35:04.546Z,40.4
2023-02-18T18:40:23.046Z,41
2023-02-18T18:45:41.539Z,40.7
2023-02-18T18:50:59.453Z,40.8
2023-02-18T18:56:24.536Z,38.8
2023-02-18T19:01:43.971Z,39.1
2023-02-18T19:07:02.773Z,40.1
2023-02-18T19:12:27.086Z,40.7
2023-02-18T19:17:45.654Z,40.4
2023-02-18T19:23:04.211Z,41.3
2023-02-18T19:28:22.712Z,41.1
2023-02-18T19:33:41.285Z,40.5
2023-02-18T19:38:43.875Z,41.2
2023-02-18T19:44:02.342Z,41.3
2023-02-18T19:49:21.092Z,41.3
2023-02-18T19:54:39.293Z,41.4
2023-02-18T19:59:57.554Z,41.2
2023-02-18T20:05:16.363Z,41.9
2023-02-18T20:10:35.100Z,42
2023-02-18T20:15:53.364Z,41.5
2023-02-18T20:21:12.598Z,41.6
2023-02-18T20:26:30.570Z,41.9
2023-02-18T20:31:49.136Z,42.1
2023-02-18T20:37:07.478Z,42.5
2023-02-18T20:42:25.672Z,42.7
2023-02-18T20:47:44.166Z,42
2023-02-18T20:53:03.654Z,42
2023-02-18T20:58:22.178Z,42.8
2023-02-18T21:03:41.129Z,43
2023-02-18T21:08:59.167Z,42.1
2023-02-18T21:14:20.768Z,42.6
2023-02-18T21:19:39.270Z,42.9
2023-02-18T21:24:57.834Z,42.5
2023-02-18T21:30:16.688Z,42.7
2023-02-18T21:35:35.241Z,42.1
2023-02-18T21:40:53.483Z,42.3
2023-02-18T21:46:11.952Z,42.3
2023-02-18T21:51:30.442Z,43
2023-02-18T21:56:49.140Z,42.3
2023-02-18T22:02:07.401Z,42.2
2023-02-18T22:07:25.633Z,41.9
2023-02-18T22:12:44.186Z,43.3
2023-02-18T22:18:02.082Z,42.6
2023-02-18T22:23:20.869Z,42.3
2023-02-18T22:28:39.393Z,42.7
2023-02-18T22:33:57.610Z,43.9
2023-02-18T22:39:16.119Z,44
2023-02-18T22:44:19.210Z,42.8
2023-02-18T22:49:37.682Z,43.6
2023-02-18T22:54:56.148Z,43.8
2023-02-18T23:00:14.574Z,43.2
2023-02-18T23:05:33.316Z,43
2023-02-18T23:10:52.104Z,44
2023-02-18T23:16:10.801Z,43.6
2023-02-18T23:21:28.990Z,43.4
2023-02-18T23:26:47.503Z,43.3
2023-02-18T23:32:05.751Z,43.9
2023-02-18T23:37:23.981Z,44.1
2023-02-18T23:42:42.212Z,43.3
2023-02-18T23:48:00.784Z,43.3
2023-02-18T23:53:19.650Z,44
2023-02-18T23:58:37.862Z,43.7
